sensor_id;sensor_type;location;lat;lon;timestamp;P1;durP1;ratioP1;P2;durP2;ratioP2
35961;SDS011;22044;48.298;10.008;2023-04-24T00:00:03;4.23;;;2.07;;
35961;SDS011;22044;48.298;10.008;2023-04-24T00:02:50;4.37;;;2.30;;
35961;SDS011;22044;48.298;10.008;2023-04-24T00:05:36;3.13;;;2.30;;
35961;SDS011;22044;48.298;10.008;2023-04-24T00:08:21;3.83;;;2.10;;
35961;SDS011;22044;48.298;10.008;2023-04-24T00:11:09;3.43;;;2.40;;
35961;SDS011;22044;48.298;10.008;2023-04-24T00:13:54;4.07;;;2.20;;
35961;SDS011;22044;48.298;10.008;2023-04-24T00:16:40;5.63;;;2.13;;
35961;SDS011;22044;48.298;10.008;2023-04-24T00:19:26;2.50;;;2.30;;
35961;SDS011;22044;48.298;10.008;2023-04-24T00:22:12;3.83;;;2.30;;
35961;SDS011;22044;48.298;10.008;2023-04-24T00:24:58;3.70;;;2.00;;
35961;SDS011;22044;48.298;10.008;2023-04-24T00:27:45;2.33;;;2.13;;
35961;SDS011;22044;48.298;10.008;2023-04-24T00:30:30;2.20;;;2.00;;
35961;SDS011;22044;48.298;10.008;2023-04-24T00:33:16;2.70;;;2.10;;
35961;SDS011;22044;48.298;10.008;2023-04-24T00:36:02;2.53;;;2.33;;
35961;SDS011;22044;48.298;10.008;2023-04-24T00:38:48;3.87;;;2.30;;
35961;SDS011;22044;48.298;10.008;2023-04-24T00:41:33;3.13;;;1.97;;
35961;SDS011;22044;48.298;10.008;2023-04-24T00:44:21;2.00;;;1.77;;
35961;SDS011;22044;48.298;10.008;2023-04-24T00:47:07;2.10;;;1.90;;
35961;SDS011;22044;48.298;10.008;2023-04-24T00:49:52;3.27;;;2.00;;
35961;SDS011;22044;48.298;10.008;2023-04-24T00:52:38;2.67;;;2.20;;
35961;SDS011;22044;48.298;10.008;2023-04-24T00:55:24;3.23;;;2.17;;
35961;SDS011;22044;48.298;10.008;2023-04-24T00:58:11;2.80;;;1.90;;
35961;SDS011;22044;48.298;10.008;2023-04-24T01:00:58;2.53;;;1.97;;
35961;SDS011;22044;48.298;10.008;2023-04-24T01:03:44;3.03;;;2.20;;
35961;SDS011;22044;48.298;10.008;2023-04-24T01:06:30;1.87;;;1.77;;
35961;SDS011;22044;48.298;10.008;2023-04-24T01:09:16;3.27;;;2.17;;
35961;SDS011;22044;48.298;10.008;2023-04-24T01:12:02;2.23;;;1.80;;
35961;SDS011;22044;48.298;10.008;2023-04-24T01:14:49;3.77;;;1.87;;
35961;SDS011;22044;48.298;10.008;2023-04-24T01:17:36;1.87;;;1.77;;
35961;SDS011;22044;48.298;10.008;2023-04-24T01:20:22;1.80;;;1.70;;
35961;SDS011;22044;48.298;10.008;2023-04-24T01:23:11;5.10;;;1.57;;
35961;SDS011;22044;48.298;10.008;2023-04-24T01:25:57;1.83;;;1.70;;
35961;SDS011;22044;48.298;10.008;2023-04-24T01:28:43;2.20;;;1.47;;
35961;SDS011;22044;48.298;10.008;2023-04-24T01:31:29;1.67;;;1.37;;
35961;SDS011;22044;48.298;10.008;2023-04-24T01:34:15;1.60;;;1.50;;
35961;SDS011;22044;48.298;10.008;2023-04-24T01:37:01;1.60;;;1.50;;
35961;SDS011;22044;48.298;10.008;2023-04-24T01:39:48;3.00;;;1.60;;
35961;SDS011;22044;48.298;10.008;2023-04-24T01:42:34;1.97;;;1.63;;
35961;SDS011;22044;48.298;10.008;2023-04-24T01:45:19;3.80;;;1.80;;
35961;SDS011;22044;48.298;10.008;2023-04-24T01:48:05;3.60;;;1.67;;
35961;SDS011;22044;48.298;10.008;2023-04-24T01:50:51;2.20;;;1.80;;
35961;SDS011;22044;48.298;10.008;2023-04-24T01:53:36;1.90;;;1.73;;
35961;SDS011;22044;48.298;10.008;2023-04-24T01:56:23;3.87;;;1.87;;
35961;SDS011;22044;48.298;10.008;2023-04-24T01:59:10;1.97;;;1.73;;
35961;SDS011;22044;48.298;10.008;2023-04-24T02:01:56;1.87;;;1.70;;
35961;SDS011;22044;48.298;10.008;2023-04-24T02:04:42;2.60;;;1.90;;
35961;SDS011;22044;48.298;10.008;2023-04-24T02:07:28;1.90;;;1.80;;
35961;SDS011;22044;48.298;10.008;2023-04-24T02:10:13;1.77;;;1.67;;
35961;SDS011;22044;48.298;10.008;2023-04-24T02:13:01;2.47;;;1.90;;
35961;SDS011;22044;48.298;10.008;2023-04-24T02:15:48;2.03;;;1.83;;
35961;SDS011;22044;48.298;10.008;2023-04-24T02:18:33;2.00;;;1.80;;
35961;SDS011;22044;48.298;10.008;2023-04-24T02:21:19;3.67;;;1.87;;
35961;SDS011;22044;48.298;10.008;2023-04-24T02:24:05;2.27;;;1.80;;
35961;SDS011;22044;48.298;10.008;2023-04-24T02:26:50;2.77;;;1.90;;
35961;SDS011;22044;48.298;10.008;2023-04-24T02:29:37;2.53;;;1.83;;
35961;SDS011;22044;48.298;10.008;2023-04-24T02:32:23;2.27;;;2.07;;
35961;SDS011;22044;48.298;10.008;2023-04-24T02:35:08;3.60;;;2.07;;
35961;SDS011;22044;48.298;10.008;2023-04-24T02:37:54;3.17;;;1.97;;
35961;SDS011;22044;48.298;10.008;2023-04-24T02:40:39;2.53;;;2.00;;
35961;SDS011;22044;48.298;10.008;2023-04-24T02:43:27;3.13;;;2.10;;
35961;SDS011;22044;48.298;10.008;2023-04-24T02:46:14;3.20;;;2.10;;
35961;SDS011;22044;48.298;10.008;2023-04-24T02:49:00;2.37;;;2.17;;
35961;SDS011;22044;48.298;10.008;2023-04-24T02:51:46;2.40;;;2.10;;
35961;SDS011;22044;48.298;10.008;2023-04-24T02:54:32;3.20;;;2.10;;
35961;SDS011;22044;48.298;10.008;2023-04-24T02:57:17;2.70;;;2.23;;
35961;SDS011;22044;48.298;10.008;2023-04-24T03:00:03;2.40;;;2.10;;
35961;SDS011;22044;48.298;10.008;2023-04-24T03:02:52;4.10;;;2.30;;
35961;SDS011;22044;48.298;10.008;2023-04-24T03:05:37;3.93;;;2.33;;
35961;SDS011;22044;48.298;10.008;2023-04-24T03:08:23;2.67;;;2.47;;
35961;SDS011;22044;48.298;10.008;2023-04-24T03:11:09;2.63;;;2.43;;
35961;SDS011;22044;48.298;10.008;2023-04-24T03:13:54;3.53;;;2.57;;
35961;SDS011;22044;48.298;10.008;2023-04-24T03:16:40;4.17;;;2.30;;
35961;SDS011;22044;48.298;10.008;2023-04-24T03:19:26;3.47;;;2.70;;
35961;SDS011;22044;48.298;10.008;2023-04-24T03:22:21;3.83;;;2.57;;
35961;SDS011;22044;48.298;10.008;2023-04-24T03:25:07;2.77;;;2.50;;
35961;SDS011;22044;48.298;10.008;2023-04-24T03:27:53;3.63;;;2.57;;
35961;SDS011;22044;48.298;10.008;2023-04-24T03:30:57;4.43;;;2.50;;
35961;SDS011;22044;48.298;10.008;2023-04-24T03:33:46;2.90;;;2.33;;
35961;SDS011;22044;48.298;10.008;2023-04-24T03:36:33;3.50;;;2.60;;
35961;SDS011;22044;48.298;10.008;2023-04-24T03:39:19;2.50;;;2.13;;
35961;SDS011;22044;48.298;10.008;2023-04-24T03:42:10;3.90;;;2.47;;
35961;SDS011;22044;48.298;10.008;2023-04-24T03:45:07;3.10;;;2.43;;
35961;SDS011;22044;48.298;10.008;2023-04-24T03:47:57;2.63;;;2.23;;
35961;SDS011;22044;48.298;10.008;2023-04-24T03:50:42;2.40;;;2.20;;
35961;SDS011;22044;48.298;10.008;2023-04-24T03:53:31;2.73;;;2.23;;
35961;SDS011;22044;48.298;10.008;2023-04-24T03:56:17;2.90;;;2.13;;
35961;SDS011;22044;48.298;10.008;2023-04-24T03:59:03;2.33;;;2.13;;
35961;SDS011;22044;48.298;10.008;2023-04-24T04:01:52;2.60;;;2.00;;
35961;SDS011;22044;48.298;10.008;2023-04-24T04:04:38;2.47;;;2.27;;
35961;SDS011;22044;48.298;10.008;2023-04-24T04:07:24;2.93;;;2.40;;
35961;SDS011;22044;48.298;10.008;2023-04-24T04:10:11;7.97;;;2.10;;
35961;SDS011;22044;48.298;10.008;2023-04-24T04:12:57;2.33;;;2.00;;
35961;SDS011;22044;48.298;10.008;2023-04-24T04:15:42;2.80;;;1.80;;
35961;SDS011;22044;48.298;10.008;2023-04-24T04:18:28;2.20;;;2.00;;
35961;SDS011;22044;48.298;10.008;2023-04-24T04:21:14;1.90;;;1.70;;
35961;SDS011;22044;48.298;10.008;2023-04-24T04:24:01;2.53;;;1.87;;
35961;SDS011;22044;48.298;10.008;2023-04-24T04:26:53;2.13;;;1.60;;
35961;SDS011;22044;48.298;10.008;2023-04-24T04:29:58;1.60;;;1.50;;
35961;SDS011;22044;48.298;10.008;2023-04-24T04:32:48;1.87;;;1.43;;
35961;SDS011;22044;48.298;10.008;2023-04-24T04:35:33;1.47;;;1.30;;
35961;SDS011;22044;48.298;10.008;2023-04-24T04:38:20;2.43;;;1.53;;
35961;SDS011;22044;48.298;10.008;2023-04-24T04:41:14;1.57;;;1.40;;
35961;SDS011;22044;48.298;10.008;2023-04-24T04:44:04;2.03;;;1.40;;
35961;SDS011;22044;48.298;10.008;2023-04-24T04:46:50;2.00;;;1.47;;
35961;SDS011;22044;48.298;10.008;2023-04-24T04:49:44;1.83;;;1.20;;
35961;SDS011;22044;48.298;10.008;2023-04-24T04:52:36;2.90;;;1.30;;
35961;SDS011;22044;48.298;10.008;2023-04-24T04:55:32;3.70;;;1.60;;
35961;SDS011;22044;48.298;10.008;2023-04-24T04:58:36;1.80;;;1.20;;
35961;SDS011;22044;48.298;10.008;2023-04-24T05:01:25;2.87;;;1.40;;
35961;SDS011;22044;48.298;10.008;2023-04-24T05:04:12;1.30;;;1.10;;
35961;SDS011;22044;48.298;10.008;2023-04-24T05:06:57;1.30;;;1.20;;
35961;SDS011;22044;48.298;10.008;2023-04-24T05:09:46;2.60;;;1.30;;
35961;SDS011;22044;48.298;10.008;2023-04-24T05:12:32;4.53;;;1.27;;
35961;SDS011;22044;48.298;10.008;2023-04-24T05:15:19;1.60;;;1.20;;
35961;SDS011;22044;48.298;10.008;2023-04-24T05:18:07;1.67;;;1.20;;
35961;SDS011;22044;48.298;10.008;2023-04-24T05:20:52;1.20;;;1.10;;
35961;SDS011;22044;48.298;10.008;2023-04-24T05:23:38;2.83;;;1.10;;
35961;SDS011;22044;48.298;10.008;2023-04-24T05:26:24;1.83;;;1.00;;
35961;SDS011;22044;48.298;10.008;2023-04-24T05:29:12;1.20;;;1.00;;
35961;SDS011;22044;48.298;10.008;2023-04-24T05:31:57;1.77;;;1.17;;
35961;SDS011;22044;48.298;10.008;2023-04-24T05:34:45;1.00;;;0.90;;
35961;SDS011;22044;48.298;10.008;2023-04-24T05:37:31;2.47;;;1.10;;
35961;SDS011;22044;48.298;10.008;2023-04-24T05:40:16;2.40;;;1.00;;
35961;SDS011;22044;48.298;10.008;2023-04-24T05:43:02;3.67;;;0.90;;
35961;SDS011;22044;48.298;10.008;2023-04-24T05:45:48;3.30;;;1.10;;
35961;SDS011;22044;48.298;10.008;2023-04-24T05:48:35;1.87;;;1.10;;
35961;SDS011;22044;48.298;10.008;2023-04-24T05:51:23;1.40;;;1.20;;
35961;SDS011;22044;48.298;10.008;2023-04-24T05:54:09;3.90;;;1.30;;
35961;SDS011;22044;48.298;10.008;2023-04-24T05:56:56;3.90;;;1.20;;
35961;SDS011;22044;48.298;10.008;2023-04-24T05:59:52;1.43;;;1.23;;
35961;SDS011;22044;48.298;10.008;2023-04-24T06:02:39;2.07;;;1.00;;
35961;SDS011;22044;48.298;10.008;2023-04-24T06:05:28;2.60;;;1.20;;
35961;SDS011;22044;48.298;10.008;2023-04-24T06:08:15;3.37;;;1.10;;
35961;SDS011;22044;48.298;10.008;2023-04-24T06:11:02;1.10;;;1.00;;
35961;SDS011;22044;48.298;10.008;2023-04-24T06:13:47;2.07;;;1.37;;
35961;SDS011;22044;48.298;10.008;2023-04-24T06:17:02;1.70;;;1.03;;
35961;SDS011;22044;48.298;10.008;2023-04-24T06:19:53;1.87;;;0.97;;
35961;SDS011;22044;48.298;10.008;2023-04-24T06:22:43;2.17;;;1.10;;
35961;SDS011;22044;48.298;10.008;2023-04-24T06:25:30;1.40;;;1.00;;
35961;SDS011;22044;48.298;10.008;2023-04-24T06:28:16;1.07;;;1.00;;
35961;SDS011;22044;48.298;10.008;2023-04-24T06:31:02;2.00;;;1.30;;
35961;SDS011;22044;48.298;10.008;2023-04-24T06:33:48;1.27;;;1.00;;
35961;SDS011;22044;48.298;10.008;2023-04-24T06:36:34;2.70;;;1.10;;
35961;SDS011;22044;48.298;10.008;2023-04-24T06:39:19;2.90;;;1.30;;
35961;SDS011;22044;48.298;10.008;2023-04-24T06:42:06;1.83;;;1.30;;
35961;SDS011;22044;48.298;10.008;2023-04-24T06:44:52;2.07;;;1.30;;
35961;SDS011;22044;48.298;10.008;2023-04-24T06:47:38;2.10;;;1.90;;
35961;SDS011;22044;48.298;10.008;2023-04-24T06:50:23;2.60;;;1.60;;
35961;SDS011;22044;48.298;10.008;2023-04-24T06:53:09;3.93;;;1.53;;
35961;SDS011;22044;48.298;10.008;2023-04-24T06:55:56;2.50;;;2.30;;
35961;SDS011;22044;48.298;10.008;2023-04-24T06:58:43;2.00;;;1.80;;
35961;SDS011;22044;48.298;10.008;2023-04-24T07:01:29;3.20;;;1.70;;
35961;SDS011;22044;48.298;10.008;2023-04-24T07:04:14;3.03;;;2.23;;
35961;SDS011;22044;48.298;10.008;2023-04-24T07:07:00;3.87;;;1.90;;
35961;SDS011;22044;48.298;10.008;2023-04-24T07:09:46;2.57;;;2.33;;
35961;SDS011;22044;48.298;10.008;2023-04-24T07:12:32;3.53;;;2.10;;
35961;SDS011;22044;48.298;10.008;2023-04-24T07:15:19;2.53;;;1.90;;
35961;SDS011;22044;48.298;10.008;2023-04-24T07:18:05;3.17;;;1.80;;
35961;SDS011;22044;48.298;10.008;2023-04-24T07:20:50;2.33;;;1.87;;
35961;SDS011;22044;48.298;10.008;2023-04-24T07:23:36;3.87;;;2.63;;
35961;SDS011;22044;48.298;10.008;2023-04-24T07:26:22;2.90;;;2.20;;
35961;SDS011;22044;48.298;10.008;2023-04-24T07:29:07;3.43;;;2.53;;
35961;SDS011;22044;48.298;10.008;2023-04-24T07:31:54;4.83;;;2.40;;
35961;SDS011;22044;48.298;10.008;2023-04-24T07:34:40;2.47;;;2.20;;
35961;SDS011;22044;48.298;10.008;2023-04-24T07:37:26;5.57;;;4.50;;
35961;SDS011;22044;48.298;10.008;2023-04-24T07:40:11;3.20;;;2.30;;
35961;SDS011;22044;48.298;10.008;2023-04-24T07:42:57;3.13;;;2.30;;
35961;SDS011;22044;48.298;10.008;2023-04-24T07:45:43;3.40;;;3.10;;
35961;SDS011;22044;48.298;10.008;2023-04-24T07:48:30;2.63;;;2.43;;
35961;SDS011;22044;48.298;10.008;2023-04-24T07:51:17;3.13;;;2.60;;
35961;SDS011;22044;48.298;10.008;2023-04-24T07:54:02;4.13;;;3.60;;
35961;SDS011;22044;48.298;10.008;2023-04-24T07:56:48;3.20;;;2.90;;
35961;SDS011;22044;48.298;10.008;2023-04-24T07:59:34;2.97;;;2.53;;
35961;SDS011;22044;48.298;10.008;2023-04-24T08:02:19;2.47;;;2.00;;
35961;SDS011;22044;48.298;10.008;2023-04-24T08:05:11;2.80;;;2.27;;
35961;SDS011;22044;48.298;10.008;2023-04-24T08:07:56;3.70;;;2.70;;
35961;SDS011;22044;48.298;10.008;2023-04-24T08:10:42;3.97;;;2.13;;
35961;SDS011;22044;48.298;10.008;2023-04-24T08:13:27;3.20;;;1.97;;
35961;SDS011;22044;48.298;10.008;2023-04-24T08:16:13;2.83;;;2.50;;
35961;SDS011;22044;48.298;10.008;2023-04-24T08:18:59;2.90;;;2.47;;
35961;SDS011;22044;48.298;10.008;2023-04-24T08:21:47;5.07;;;4.03;;
35961;SDS011;22044;48.298;10.008;2023-04-24T08:24:33;2.70;;;2.47;;
35961;SDS011;22044;48.298;10.008;2023-04-24T08:27:20;2.30;;;2.10;;
35961;SDS011;22044;48.298;10.008;2023-04-24T08:30:07;3.87;;;2.23;;
35961;SDS011;22044;48.298;10.008;2023-04-24T08:32:53;2.77;;;2.13;;
35961;SDS011;22044;48.298;10.008;2023-04-24T08:35:39;3.10;;;2.00;;
35961;SDS011;22044;48.298;10.008;2023-04-24T08:38:26;3.63;;;2.77;;
35961;SDS011;22044;48.298;10.008;2023-04-24T08:41:11;2.57;;;2.07;;
35961;SDS011;22044;48.298;10.008;2023-04-24T08:44:00;2.17;;;1.77;;
35961;SDS011;22044;48.298;10.008;2023-04-24T08:46:47;2.43;;;2.00;;
35961;SDS011;22044;48.298;10.008;2023-04-24T08:49:34;3.30;;;2.17;;
35961;SDS011;22044;48.298;10.008;2023-04-24T08:52:21;2.20;;;1.97;;
35961;SDS011;22044;48.298;10.008;2023-04-24T08:55:09;3.23;;;2.33;;
35961;SDS011;22044;48.298;10.008;2023-04-24T08:57:55;2.60;;;1.90;;
35961;SDS011;22044;48.298;10.008;2023-04-24T09:00:42;2.50;;;2.30;;
35961;SDS011;22044;48.298;10.008;2023-04-24T09:03:30;2.93;;;1.93;;
35961;SDS011;22044;48.298;10.008;2023-04-24T09:06:18;2.13;;;1.43;;
35961;SDS011;22044;48.298;10.008;2023-04-24T09:09:06;3.03;;;1.90;;
35961;SDS011;22044;48.298;10.008;2023-04-24T09:11:54;1.93;;;1.60;;
35961;SDS011;22044;48.298;10.008;2023-04-24T09:14:41;3.10;;;1.60;;
35961;SDS011;22044;48.298;10.008;2023-04-24T09:17:28;1.50;;;1.40;;
35961;SDS011;22044;48.298;10.008;2023-04-24T09:20:15;2.50;;;1.70;;
35961;SDS011;22044;48.298;10.008;2023-04-24T09:23:00;1.30;;;1.20;;
35961;SDS011;22044;48.298;10.008;2023-04-24T09:25:48;4.07;;;1.70;;
35961;SDS011;22044;48.298;10.008;2023-04-24T09:28:40;3.27;;;1.50;;
35961;SDS011;22044;48.298;10.008;2023-04-24T09:31:28;2.30;;;1.60;;
35961;SDS011;22044;48.298;10.008;2023-04-24T09:34:19;1.60;;;1.50;;
35961;SDS011;22044;48.298;10.008;2023-04-24T09:37:07;1.90;;;1.80;;
35961;SDS011;22044;48.298;10.008;2023-04-24T09:40:06;2.90;;;1.83;;
35961;SDS011;22044;48.298;10.008;2023-04-24T09:42:54;1.70;;;1.40;;
35961;SDS011;22044;48.298;10.008;2023-04-24T09:45:42;2.60;;;2.03;;
35961;SDS011;22044;48.298;10.008;2023-04-24T09:48:31;2.17;;;1.40;;
35961;SDS011;22044;48.298;10.008;2023-04-24T09:51:17;1.87;;;1.60;;
35961;SDS011;22044;48.298;10.008;2023-04-24T09:54:20;1.50;;;1.37;;
35961;SDS011;22044;48.298;10.008;2023-04-24T09:57:07;1.70;;;1.30;;
35961;SDS011;22044;48.298;10.008;2023-04-24T09:59:54;1.50;;;1.40;;
35961;SDS011;22044;48.298;10.008;2023-04-24T10:02:41;1.80;;;1.57;;
35961;SDS011;22044;48.298;10.008;2023-04-24T10:05:28;3.83;;;1.70;;
35961;SDS011;22044;48.298;10.008;2023-04-24T10:08:15;3.37;;;1.60;;
35961;SDS011;22044;48.298;10.008;2023-04-24T10:11:01;2.07;;;1.60;;
35961;SDS011;22044;48.298;10.008;2023-04-24T10:13:47;1.70;;;1.50;;
35961;SDS011;22044;48.298;10.008;2023-04-24T10:16:32;3.53;;;1.33;;
35961;SDS011;22044;48.298;10.008;2023-04-24T10:19:21;1.30;;;1.20;;
35961;SDS011;22044;48.298;10.008;2023-04-24T10:22:11;1.90;;;1.33;;
35961;SDS011;22044;48.298;10.008;2023-04-24T10:24:57;1.73;;;1.60;;
35961;SDS011;22044;48.298;10.008;2023-04-24T10:27:44;1.47;;;1.37;;
35961;SDS011;22044;48.298;10.008;2023-04-24T10:30:31;2.43;;;1.60;;
35961;SDS011;22044;48.298;10.008;2023-04-24T10:33:19;1.80;;;1.63;;
35961;SDS011;22044;48.298;10.008;2023-04-24T10:36:09;2.80;;;1.60;;
35961;SDS011;22044;48.298;10.008;2023-04-24T10:38:56;1.40;;;1.30;;
35961;SDS011;22044;48.298;10.008;2023-04-24T10:41:43;3.83;;;1.57;;
35961;SDS011;22044;48.298;10.008;2023-04-24T10:44:35;1.93;;;1.47;;
35961;SDS011;22044;48.298;10.008;2023-04-24T10:47:21;1.90;;;1.40;;
35961;SDS011;22044;48.298;10.008;2023-04-24T10:50:10;2.73;;;1.30;;
35961;SDS011;22044;48.298;10.008;2023-04-24T10:53:06;1.60;;;1.50;;
35961;SDS011;22044;48.298;10.008;2023-04-24T10:55:56;1.77;;;1.57;;
35961;SDS011;22044;48.298;10.008;2023-04-24T10:58:43;3.70;;;1.63;;
35961;SDS011;22044;48.298;10.008;2023-04-24T11:01:37;2.27;;;1.70;;
35961;SDS011;22044;48.298;10.008;2023-04-24T11:04:29;3.20;;;1.37;;
35961;SDS011;22044;48.298;10.008;2023-04-24T11:07:16;3.77;;;1.83;;
35961;SDS011;22044;48.298;10.008;2023-04-24T11:10:04;3.33;;;1.50;;
35961;SDS011;22044;48.298;10.008;2023-04-24T11:12:50;1.73;;;1.40;;
35961;SDS011;22044;48.298;10.008;2023-04-24T11:15:36;2.73;;;1.70;;
35961;SDS011;22044;48.298;10.008;2023-04-24T11:18:22;2.93;;;1.40;;
35961;SDS011;22044;48.298;10.008;2023-04-24T11:21:12;2.17;;;1.43;;
35961;SDS011;22044;48.298;10.008;2023-04-24T11:23:58;4.23;;;1.53;;
35961;SDS011;22044;48.298;10.008;2023-04-24T11:27:11;1.70;;;1.60;;
35961;SDS011;22044;48.298;10.008;2023-04-24T11:29:59;2.70;;;1.50;;
35961;SDS011;22044;48.298;10.008;2023-04-24T11:32:48;2.87;;;1.43;;
35961;SDS011;22044;48.298;10.008;2023-04-24T11:35:35;3.37;;;2.03;;
35961;SDS011;22044;48.298;10.008;2023-04-24T11:38:24;2.73;;;1.57;;
35961;SDS011;22044;48.298;10.008;2023-04-24T11:41:11;4.63;;;1.70;;
35961;SDS011;22044;48.298;10.008;2023-04-24T11:43:59;2.25;;;1.48;;
35961;SDS011;22044;48.298;10.008;2023-04-24T11:46:46;3.23;;;1.80;;
35961;SDS011;22044;48.298;10.008;2023-04-24T11:49:32;1.80;;;1.60;;
35961;SDS011;22044;48.298;10.008;2023-04-24T11:52:19;4.47;;;1.40;;
35961;SDS011;22044;48.298;10.008;2023-04-24T11:55:06;2.43;;;1.40;;
35961;SDS011;22044;48.298;10.008;2023-04-24T11:57:55;2.43;;;1.50;;
35961;SDS011;22044;48.298;10.008;2023-04-24T12:00:43;1.40;;;1.20;;
35961;SDS011;22044;48.298;10.008;2023-04-24T12:03:29;2.10;;;1.90;;
35961;SDS011;22044;48.298;10.008;2023-04-24T12:06:15;3.80;;;1.37;;
35961;SDS011;22044;48.298;10.008;2023-04-24T12:09:00;5.03;;;1.40;;
35961;SDS011;22044;48.298;10.008;2023-04-24T12:11:52;3.67;;;1.80;;
35961;SDS011;22044;48.298;10.008;2023-04-24T12:14:43;2.90;;;1.50;;
35961;SDS011;22044;48.298;10.008;2023-04-24T12:17:36;2.70;;;1.47;;
35961;SDS011;22044;48.298;10.008;2023-04-24T12:20:27;1.77;;;1.47;;
35961;SDS011;22044;48.298;10.008;2023-04-24T12:23:13;2.47;;;1.53;;
35961;SDS011;22044;48.298;10.008;2023-04-24T12:26:03;2.77;;;1.40;;
35961;SDS011;22044;48.298;10.008;2023-04-24T12:28:50;3.80;;;1.40;;
35961;SDS011;22044;48.298;10.008;2023-04-24T12:31:35;3.17;;;1.73;;
35961;SDS011;22044;48.298;10.008;2023-04-24T12:34:23;3.93;;;1.80;;
35961;SDS011;22044;48.298;10.008;2023-04-24T12:37:10;7.90;;;1.60;;
35961;SDS011;22044;48.298;10.008;2023-04-24T12:40:00;2.20;;;1.37;;
35961;SDS011;22044;48.298;10.008;2023-04-24T12:42:47;2.27;;;1.67;;
35961;SDS011;22044;48.298;10.008;2023-04-24T12:45:33;2.60;;;1.77;;
35961;SDS011;22044;48.298;10.008;2023-04-24T12:48:19;2.57;;;1.40;;
35961;SDS011;22044;48.298;10.008;2023-04-24T12:51:07;2.53;;;1.57;;
35961;SDS011;22044;48.298;10.008;2023-04-24T12:53:53;2.23;;;1.27;;
35961;SDS011;22044;48.298;10.008;2023-04-24T12:56:38;1.73;;;1.10;;
35961;SDS011;22044;48.298;10.008;2023-04-24T12:59:24;1.93;;;1.10;;
35961;SDS011;22044;48.298;10.008;2023-04-24T13:02:09;1.90;;;1.03;;
35961;SDS011;22044;48.298;10.008;2023-04-24T13:04:55;2.43;;;1.00;;
35961;SDS011;22044;48.298;10.008;2023-04-24T13:07:42;1.20;;;1.10;;
35961;SDS011;22044;48.298;10.008;2023-04-24T13:10:28;1.13;;;0.90;;
35961;SDS011;22044;48.298;10.008;2023-04-24T13:13:13;1.37;;;1.27;;
35961;SDS011;22044;48.298;10.008;2023-04-24T13:16:01;2.73;;;1.00;;
35961;SDS011;22044;48.298;10.008;2023-04-24T13:18:47;1.90;;;1.07;;
35961;SDS011;22044;48.298;10.008;2023-04-24T13:21:32;1.90;;;1.20;;
35961;SDS011;22044;48.298;10.008;2023-04-24T13:24:20;1.03;;;0.93;;
35961;SDS011;22044;48.298;10.008;2023-04-24T13:27:10;1.93;;;1.10;;
35961;SDS011;22044;48.298;10.008;2023-04-24T13:29:56;1.33;;;1.10;;
35961;SDS011;22044;48.298;10.008;2023-04-24T13:32:42;1.60;;;1.00;;
35961;SDS011;22044;48.298;10.008;2023-04-24T13:35:27;1.63;;;1.10;;
35961;SDS011;22044;48.298;10.008;2023-04-24T13:38:13;1.13;;;0.90;;
35961;SDS011;22044;48.298;10.008;2023-04-24T13:41:00;1.73;;;1.03;;
35961;SDS011;22044;48.298;10.008;2023-04-24T13:43:46;1.67;;;0.90;;
35961;SDS011;22044;48.298;10.008;2023-04-24T13:46:32;0.93;;;0.90;;
35961;SDS011;22044;48.298;10.008;2023-04-24T13:49:17;1.10;;;1.00;;
35961;SDS011;22044;48.298;10.008;2023-04-24T13:52:05;1.20;;;1.10;;
35961;SDS011;22044;48.298;10.008;2023-04-24T13:54:51;1.63;;;1.10;;
35961;SDS011;22044;48.298;10.008;2023-04-24T13:57:38;1.50;;;1.10;;
35961;SDS011;22044;48.298;10.008;2023-04-24T14:00:24;1.43;;;0.97;;
35961;SDS011;22044;48.298;10.008;2023-04-24T14:03:09;1.33;;;0.97;;
35961;SDS011;22044;48.298;10.008;2023-04-24T14:05:55;1.10;;;1.00;;
35961;SDS011;22044;48.298;10.008;2023-04-24T14:08:41;1.40;;;1.10;;
35961;SDS011;22044;48.298;10.008;2023-04-24T14:11:27;1.40;;;1.20;;
35961;SDS011;22044;48.298;10.008;2023-04-24T14:14:14;1.33;;;0.90;;
35961;SDS011;22044;48.298;10.008;2023-04-24T14:17:00;0.80;;;0.80;;
35961;SDS011;22044;48.298;10.008;2023-04-24T14:19:45;1.47;;;0.90;;
35961;SDS011;22044;48.298;10.008;2023-04-24T14:22:31;1.67;;;0.93;;
35961;SDS011;22044;48.298;10.008;2023-04-24T14:25:16;1.73;;;1.10;;
35961;SDS011;22044;48.298;10.008;2023-04-24T14:28:03;1.07;;;0.93;;
35961;SDS011;22044;48.298;10.008;2023-04-24T14:30:50;1.20;;;1.10;;
35961;SDS011;22044;48.298;10.008;2023-04-24T14:33:35;1.20;;;1.10;;
35961;SDS011;22044;48.298;10.008;2023-04-24T14:36:21;2.17;;;1.47;;
35961;SDS011;22044;48.298;10.008;2023-04-24T14:39:07;1.03;;;0.93;;
35961;SDS011;22044;48.298;10.008;2023-04-24T14:41:53;1.63;;;1.40;;
35961;SDS011;22044;48.298;10.008;2023-04-24T14:44:39;2.50;;;1.00;;
35961;SDS011;22044;48.298;10.008;2023-04-24T14:47:26;2.57;;;1.20;;
35961;SDS011;22044;48.298;10.008;2023-04-24T14:50:13;1.20;;;1.10;;
35961;SDS011;22044;48.298;10.008;2023-04-24T14:52:58;1.60;;;1.50;;
35961;SDS011;22044;48.298;10.008;2023-04-24T14:55:45;2.33;;;1.10;;
35961;SDS011;22044;48.298;10.008;2023-04-24T14:58:31;1.10;;;1.00;;
35961;SDS011;22044;48.298;10.008;2023-04-24T15:01:16;1.47;;;1.10;;
35961;SDS011;22044;48.298;10.008;2023-04-24T15:04:04;1.27;;;1.00;;
35961;SDS011;22044;48.298;10.008;2023-04-24T15:06:49;1.00;;;0.70;;
35961;SDS011;22044;48.298;10.008;2023-04-24T15:09:35;1.40;;;1.07;;
35961;SDS011;22044;48.298;10.008;2023-04-24T15:12:21;1.17;;;1.00;;
35961;SDS011;22044;48.298;10.008;2023-04-24T15:15:07;0.90;;;0.90;;
35961;SDS011;22044;48.298;10.008;2023-04-24T15:17:53;1.07;;;0.97;;
35961;SDS011;22044;48.298;10.008;2023-04-24T15:20:40;1.10;;;1.00;;
35961;SDS011;22044;48.298;10.008;2023-04-24T15:23:26;1.17;;;1.07;;
35961;SDS011;22044;48.298;10.008;2023-04-24T15:26:11;2.77;;;1.17;;
35961;SDS011;22044;48.298;10.008;2023-04-24T15:28:57;1.20;;;1.10;;
35961;SDS011;22044;48.298;10.008;2023-04-24T15:31:43;1.27;;;1.10;;
35961;SDS011;22044;48.298;10.008;2023-04-24T15:34:28;1.40;;;1.07;;
35961;SDS011;22044;48.298;10.008;2023-04-24T15:37:17;1.73;;;1.00;;
35961;SDS011;22044;48.298;10.008;2023-04-24T15:40:02;2.53;;;1.10;;
35961;SDS011;22044;48.298;10.008;2023-04-24T15:42:50;1.57;;;1.10;;
35961;SDS011;22044;48.298;10.008;2023-04-24T15:45:36;1.70;;;1.10;;
35961;SDS011;22044;48.298;10.008;2023-04-24T15:48:21;1.30;;;0.90;;
35961;SDS011;22044;48.298;10.008;2023-04-24T15:51:07;1.00;;;0.93;;
35961;SDS011;22044;48.298;10.008;2023-04-24T15:53:54;0.90;;;0.90;;
35961;SDS011;22044;48.298;10.008;2023-04-24T15:56:39;1.20;;;1.10;;
35961;SDS011;22044;48.298;10.008;2023-04-24T15:59:25;2.93;;;1.10;;
35961;SDS011;22044;48.298;10.008;2023-04-24T16:02:13;1.20;;;1.10;;
35961;SDS011;22044;48.298;10.008;2023-04-24T16:05:01;1.73;;;1.20;;
35961;SDS011;22044;48.298;10.008;2023-04-24T16:07:47;1.17;;;1.07;;
35961;SDS011;22044;48.298;10.008;2023-04-24T16:10:33;1.30;;;1.20;;
35961;SDS011;22044;48.298;10.008;2023-04-24T16:13:19;1.60;;;1.20;;
35961;SDS011;22044;48.298;10.008;2023-04-24T16:16:05;1.87;;;1.30;;
35961;SDS011;22044;48.298;10.008;2023-04-24T16:18:50;2.80;;;1.10;;
35961;SDS011;22044;48.298;10.008;2023-04-24T16:21:37;3.83;;;1.40;;
35961;SDS011;22044;48.298;10.008;2023-04-24T16:24:22;1.30;;;1.20;;
35961;SDS011;22044;48.298;10.008;2023-04-24T16:27:09;3.27;;;2.07;;
35961;SDS011;22044;48.298;10.008;2023-04-24T16:29:55;1.17;;;1.00;;